Terminal Aerodrome Forecast
Issued by NWS

Current Version | Previous Version | Graphics & Text | Print | Product List | Glossary On
Versions: 1 2 3 4 5 6 7 8 9 10 11 12 13 14 15 16 17 18 19 20 21
000
FTUS41 KPBZ 141539 AAB
TAFMGW
TAF AMD
KMGW 141539Z 1416/1512 30009KT P6SM -SHSN BKN015 OVC030
      TEMPO 1416/1417 4SM -SHSN
     FM141800 30008KT P6SM BKN025
     FM150200 VRB03KT P6SM SCT025
     FM150900 VRB05KT P6SM BKN015=

USA.gov is the U.S. government's official web portal to all federal, state and local government web resources and services.